createdAt,value
2023-05-05T00:02:22.084Z,100971.06
2023-05-05T00:05:25.348Z,100970.31
2023-05-05T00:08:28.473Z,100978.28
2023-05-05T00:11:30.985Z,100969.53
2023-05-05T00:14:33.282Z,100971.84
2023-05-05T00:17:36.038Z,100965.44
2023-05-05T00:20:38.366Z,100974.94
2023-05-05T00:23:40.928Z,100972.84
2023-05-05T00:26:43.126Z,100963.63
2023-05-05T00:29:45.643Z,100959.28
2023-05-05T00:32:49.172Z,100966.28
2023-05-05T00:35:51.839Z,100964.03
2023-05-05T00:38:54.050Z,100957.22
2023-05-05T00:41:56.534Z,100957.12
2023-05-05T00:44:58.679Z,100966.66
2023-05-05T00:48:01.608Z,100964.31
2023-05-05T00:51:08.761Z,100965.00
2023-05-05T00:54:11.409Z,100953.47
2023-05-05T00:57:13.863Z,100957.66
2023-05-05T01:00:16.764Z,100962.66
2023-05-05T01:03:19.147Z,100955.31
2023-05-05T01:06:53.376Z,100960.41
2023-05-05T01:10:18.772Z,100964.03
2023-05-05T01:13:28.785Z,100960.13
2023-05-05T01:16:34.589Z,100953.41
2023-05-05T01:19:43.210Z,100946.41
2023-05-05T01:22:57.077Z,100945.19
2023-05-05T01:26:24.367Z,100942.31
2023-05-05T01:29:47.993Z,100933.06
2023-05-05T01:32:55.375Z,100934.25
2023-05-05T01:36:13.545Z,100939.66
2023-05-05T01:39:17.738Z,100945.50
2023-05-05T01:42:22.330Z,100947.62
2023-05-05T01:45:28.546Z,100945.91
2023-05-05T01:48:31.072Z,100943.47
2023-05-05T01:51:35.475Z,100942.84
2023-05-05T01:54:40.201Z,100936.78
2023-05-05T01:57:45.143Z,100939.53
2023-05-05T02:00:48.996Z,100943.13
2023-05-05T02:03:54.324Z,100939.88
2023-05-05T02:06:58.241Z,100938.37
2023-05-05T02:10:02.720Z,100939.97
2023-05-05T02:13:05.549Z,100937.12
2023-05-05T02:16:09.584Z,100935.00
2023-05-05T02:19:14.254Z,100927.34
2023-05-05T02:22:17.367Z,100930.84
2023-05-05T02:25:20.111Z,100940.72
2023-05-05T02:28:29.104Z,100925.63
2023-05-05T02:31:34.369Z,100929.34
2023-05-05T02:34:40.179Z,100933.06
2023-05-05T02:37:59.774Z,100932.31
2023-05-05T02:41:03.827Z,100931.03
2023-05-05T02:44:08.374Z,100933.81
2023-05-05T02:47:11.583Z,100933.25
2023-05-05T02:50:15.586Z,100935.37
2023-05-05T02:53:24.713Z,100941.09
2023-05-05T02:56:51.001Z,100942.13
2023-05-05T03:00:02.866Z,100937.69
2023-05-05T03:03:24.627Z,100938.09
2023-05-05T03:06:30.055Z,100940.19
2023-05-05T03:09:39.760Z,100938.69
2023-05-05T03:12:53.351Z,100939.53
2023-05-05T03:15:58.543Z,100939.13
2023-05-05T03:19:02.699Z,100932.25
2023-05-05T03:22:05.415Z,100936.78
2023-05-05T03:25:08.732Z,100941.78
2023-05-05T03:28:11.569Z,100937.53
2023-05-05T03:31:14.541Z,100944.63
2023-05-05T03:34:17.144Z,100938.28
2023-05-05T03:37:19.904Z,100933.50
2023-05-05T03:40:29.665Z,100938.59
2023-05-05T03:43:39.429Z,100938.37
2023-05-05T03:46:42.433Z,100929.50
2023-05-05T03:49:45.601Z,100934.59
2023-05-05T03:52:48.194Z,100944.12
2023-05-05T03:55:50.567Z,100938.34
2023-05-05T03:58:53.004Z,100941.87
2023-05-05T04:01:55.325Z,100939.75
2023-05-05T04:04:57.886Z,100949.84
2023-05-05T04:08:00.584Z,100949.28
2023-05-05T04:11:03.670Z,100953.75
2023-05-05T04:14:06.498Z,100952.59
2023-05-05T04:17:09.536Z,100955.28
2023-05-05T04:20:12.117Z,100951.78
2023-05-05T04:23:15.175Z,100956.19
2023-05-05T04:26:17.747Z,100953.97
2023-05-05T04:29:20.496Z,100952.25
2023-05-05T04:32:23.216Z,100947.56
2023-05-05T04:35:26.368Z,100950.44
2023-05-05T04:38:29.273Z,100951.81
2023-05-05T04:41:32.867Z,100958.19
2023-05-05T04:44:35.072Z,100963.66
2023-05-05T04:47:39.386Z,100964.69
2023-05-05T04:50:41.874Z,100970.97
2023-05-05T04:53:44.402Z,100973.94
2023-05-05T04:56:47.760Z,100969.56
2023-05-05T04:59:50.344Z,100975.56
2023-05-05T05:02:53.209Z,100981.72
2023-05-05T05:05:55.744Z,100982.53
2023-05-05T05:08:57.936Z,100983.75
2023-05-05T05:12:02.866Z,100987.28
2023-05-05T05:15:05.670Z,100983.78
2023-05-05T05:18:08.135Z,100984.12
2023-05-05T05:21:10.689Z,100993.06
2023-05-05T05:24:13.735Z,100998.44
2023-05-05T05:30:23.639Z,100994.91
2023-05-05T05:33:26.031Z,100992.44
2023-05-05T05:36:29.300Z,100990.91
2023-05-05T05:39:31.681Z,100991.78
2023-05-05T05:42:34.839Z,101001.34
2023-05-05T05:45:37.562Z,100997.78
2023-05-05T05:48:40.902Z,101000.72
2023-05-05T05:51:43.641Z,101005.47
2023-05-05T05:54:47.339Z,101009.63
2023-05-05T05:57:49.663Z,101008.97
2023-05-05T06:00:52.743Z,101013.03
2023-05-05T06:03:55.423Z,101012.50
2023-05-05T06:06:58.091Z,101014.16
2023-05-05T06:10:10.849Z,101010.84
2023-05-05T06:13:22.386Z,101006.25
2023-05-05T06:16:26.525Z,101007.84
2023-05-05T06:19:31.055Z,101009.63
2023-05-05T06:22:33.764Z,101012.84
2023-05-05T06:25:36.164Z,101006.44
2023-05-05T06:28:39.290Z,101008.91
2023-05-05T06:31:47.703Z,101001.78
2023-05-05T06:34:50.278Z,100996.75
2023-05-05T06:37:52.452Z,100990.69
2023-05-05T06:40:54.966Z,100997.22
2023-05-05T06:43:57.619Z,100991.53
2023-05-05T06:47:00.459Z,100994.06
2023-05-05T06:50:03.803Z,100991.03
2023-05-05T06:53:07.808Z,100998.59
2023-05-05T06:56:11.527Z,101001.91
2023-05-05T06:59:14.175Z,100998.09
2023-05-05T07:02:16.504Z,100994.41
2023-05-05T07:05:19.062Z,100991.09
2023-05-05T07:08:21.399Z,100992.34
2023-05-05T07:11:24.166Z,100990.19
2023-05-05T07:14:27.065Z,100997.00
2023-05-05T07:17:29.613Z,100998.09
2023-05-05T07:20:32.388Z,100989.37
2023-05-05T07:23:40.232Z,100990.88
2023-05-05T07:26:43.481Z,100988.94
2023-05-05T07:29:46.288Z,100991.00
2023-05-05T07:32:49.885Z,100982.25
2023-05-05T07:35:52.384Z,100986.97
2023-05-05T07:38:54.852Z,100989.13
2023-05-05T07:41:58.124Z,100990.47
2023-05-05T07:45:00.723Z,100999.84
2023-05-05T07:48:03.487Z,100993.44
2023-05-05T07:51:05.834Z,100987.56
2023-05-05T07:54:08.810Z,100987.16
2023-05-05T07:57:11.899Z,100990.00
2023-05-05T08:00:15.961Z,100990.63
2023-05-05T08:03:21.810Z,100993.47
2023-05-05T08:06:25.235Z,100992.03
2023-05-05T08:09:27.788Z,100994.97
2023-05-05T08:12:32.012Z,100996.87
2023-05-05T08:15:34.538Z,100985.44
2023-05-05T08:18:38.341Z,100988.38
2023-05-05T08:21:40.875Z,100980.81
2023-05-05T08:24:43.065Z,100977.41
2023-05-05T08:27:45.894Z,100980.69
2023-05-05T08:30:49.385Z,100981.78
2023-05-05T08:33:51.827Z,100979.50
2023-05-05T08:36:54.116Z,100981.34
2023-05-05T08:40:00.387Z,100979.41
2023-05-05T08:43:03.802Z,100985.56
2023-05-05T08:46:10.639Z,100982.16
2023-05-05T08:49:16.290Z,100983.56
2023-05-05T08:52:23.831Z,100984.19
2023-05-05T08:55:31.154Z,100967.16
2023-05-05T08:58:36.870Z,100967.16
2023-05-05T09:01:41.763Z,100968.91
2023-05-05T09:04:44.458Z,100970.59
2023-05-05T09:07:47.329Z,100972.56
2023-05-05T09:10:51.323Z,100959.94
2023-05-05T09:13:54.693Z,100955.19
2023-05-05T09:16:57.132Z,100961.78
2023-05-05T09:20:10.492Z,100966.38
2023-05-05T09:23:23.232Z,100955.59
2023-05-05T09:26:26.041Z,100959.37
2023-05-05T09:29:29.410Z,100957.31
2023-05-05T09:32:43.688Z,100945.06
2023-05-05T09:35:56.197Z,100949.41
2023-05-05T09:39:06.185Z,100947.94
2023-05-05T09:42:18.486Z,100940.28
2023-05-05T09:45:20.814Z,100938.28
2023-05-05T09:48:28.370Z,100930.44
2023-05-05T09:51:31.745Z,100922.00
2023-05-05T09:54:35.285Z,100930.09
2023-05-05T09:57:37.633Z,100932.59
2023-05-05T10:00:40.160Z,100929.06
2023-05-05T10:03:52.279Z,100930.94
2023-05-05T10:06:56.427Z,100923.47
2023-05-05T10:09:58.867Z,100918.47
2023-05-05T10:13:01.727Z,100919.16
2023-05-05T10:16:05.014Z,100913.53
2023-05-05T10:19:07.398Z,100907.03
2023-05-05T10:22:10.774Z,100909.13
2023-05-05T10:25:15.424Z,100903.78
2023-05-05T10:28:29.786Z,100908.44
2023-05-05T10:32:16.310Z,100911.34
2023-05-05T10:35:28.592Z,100910.56
2023-05-05T10:38:31.806Z,100905.88
2023-05-05T10:41:35.094Z,100890.66
2023-05-05T10:44:37.562Z,100883.16
2023-05-05T10:47:40.536Z,100887.09
2023-05-05T10:50:51.280Z,100884.16
2023-05-05T10:54:00.324Z,100877.47
2023-05-05T10:57:05.044Z,100867.13
2023-05-05T11:00:41.626Z,100870.66
2023-05-05T11:03:44.161Z,100862.28
2023-05-05T11:07:10.244Z,100863.69
2023-05-05T11:10:20.964Z,100860.69
2023-05-05T11:13:24.198Z,100856.78
2023-05-05T11:16:43.653Z,100854.47
2023-05-05T11:19:47.650Z,100847.13
2023-05-05T11:23:02.594Z,100844.22
2023-05-05T11:26:08.993Z,100836.53
2023-05-05T11:29:11.675Z,100837.69
2023-05-05T11:32:15.780Z,100837.13
2023-05-05T11:35:18.277Z,100832.66
2023-05-05T11:38:28.196Z,100834.63
2023-05-05T11:41:30.742Z,100820.91
2023-05-05T11:44:34.136Z,100811.03
2023-05-05T11:47:38.398Z,100812.87
2023-05-05T11:50:41.910Z,100810.91
2023-05-05T11:53:46.931Z,100806.47
2023-05-05T11:56:51.181Z,100810.13
2023-05-05T11:59:54.169Z,100802.06
2023-05-05T12:02:59.177Z,100800.19
2023-05-05T12:06:03.527Z,100794.94
2023-05-05T12:09:16.854Z,100795.84
2023-05-05T12:12:20.504Z,100790.94
2023-05-05T12:15:31.290Z,100791.19
2023-05-05T12:18:35.521Z,100788.50
2023-05-05T12:21:38.448Z,100784.50
2023-05-05T12:24:41.794Z,100787.91
2023-05-05T12:27:53.005Z,100776.81
2023-05-05T12:30:59.465Z,100791.16
2023-05-05T12:34:03.190Z,100776.47
2023-05-05T12:37:06.045Z,100781.25
2023-05-05T12:40:47.492Z,100771.25
2023-05-05T12:44:01.172Z,100770.59
2023-05-05T12:47:04.061Z,100759.50
2023-05-05T12:50:06.758Z,100763.34
2023-05-05T12:53:09.049Z,100748.94
2023-05-05T12:56:34.247Z,100759.47
2023-05-05T12:59:36.529Z,100749.84
2023-05-05T13:02:41.725Z,100746.69
2023-05-05T13:05:44.043Z,100745.09
2023-05-05T13:08:46.684Z,100736.78
2023-05-05T13:11:49.292Z,100727.03
2023-05-05T13:14:51.883Z,100730.62
2023-05-05T13:18:01.455Z,100723.69
2023-05-05T13:21:04.363Z,100714.09
2023-05-05T13:24:22.966Z,100716.94
2023-05-05T13:27:28.392Z,100712.31
2023-05-05T13:30:30.560Z,100710.44
2023-05-05T13:33:34.563Z,100710.12
2023-05-05T13:36:36.938Z,100703.00
2023-05-05T13:39:39.416Z,100703.50
2023-05-05T13:42:41.550Z,100698.22
2023-05-05T13:45:43.964Z,100693.06
2023-05-05T13:48:46.645Z,100690.12
2023-05-05T13:51:49.235Z,100684.97
2023-05-05T13:54:51.480Z,100683.25
2023-05-05T13:57:54.011Z,100680.91
2023-05-05T14:00:56.327Z,100679.56
2023-05-05T14:03:58.899Z,100679.91
2023-05-05T14:07:01.146Z,100679.34
2023-05-05T14:10:04.251Z,100679.91
2023-05-05T14:13:07.296Z,100680.75
2023-05-05T14:16:09.881Z,100680.06
2023-05-05T14:19:12.053Z,100671.63
2023-05-05T14:22:14.562Z,100677.53
2023-05-05T14:25:16.766Z,100676.38
2023-05-05T14:28:19.277Z,100667.59
2023-05-05T14:31:21.546Z,100664.84
2023-05-05T14:34:24.056Z,100662.00
2023-05-05T14:37:26.241Z,100658.91
2023-05-05T14:40:30.294Z,100657.19
2023-05-05T14:43:33.160Z,100657.13
2023-05-05T14:46:35.787Z,100659.03
2023-05-05T14:49:37.924Z,100651.75
2023-05-05T14:52:40.602Z,100648.47
2023-05-05T14:55:42.757Z,100648.13
2023-05-05T14:58:46.172Z,100645.94
2023-05-05T15:01:49.573Z,100646.78
2023-05-05T15:04:53.034Z,100645.06
2023-05-05T15:07:55.450Z,100650.28
2023-05-05T15:10:57.904Z,100648.69
2023-05-05T15:14:00.097Z,100642.97
2023-05-05T15:17:02.792Z,100637.88
2023-05-05T15:20:06.402Z,100642.12
2023-05-05T15:23:08.994Z,100642.97
2023-05-05T15:26:11.493Z,100646.19
2023-05-05T15:29:14.133Z,100640.72
2023-05-05T15:32:16.273Z,100640.69
2023-05-05T15:35:19.046Z,100638.91
2023-05-05T15:38:21.245Z,100631.75
2023-05-05T15:41:26.987Z,100636.59
2023-05-05T15:44:29.831Z,100631.38
2023-05-05T15:47:32.340Z,100624.47
2023-05-05T15:50:34.573Z,100632.88
2023-05-05T15:53:37.086Z,100626.06
2023-05-05T15:56:39.345Z,100620.75
2023-05-05T15:59:41.860Z,100622.81
2023-05-05T16:02:44.933Z,100628.13
2023-05-05T16:05:47.806Z,100621.78
2023-05-05T16:08:51.722Z,100618.94
2023-05-05T16:11:54.583Z,100619.94
2023-05-05T16:14:56.808Z,100611.84
2023-05-05T16:17:59.392Z,100605.41
2023-05-05T16:21:02.576Z,100612.44
2023-05-05T16:24:05.302Z,100612.88
2023-05-05T16:27:07.623Z,100610.25
2023-05-05T16:30:12.773Z,100609.34
2023-05-05T16:33:15.063Z,100604.94
2023-05-05T16:36:18.046Z,100603.31
2023-05-05T16:39:20.794Z,100606.81
2023-05-05T16:42:24.189Z,100614.84
2023-05-05T16:45:26.391Z,100613.09
2023-05-05T16:48:28.944Z,100608.88
2023-05-05T16:51:31.493Z,100604.81
2023-05-05T16:54:34.003Z,100610.06
2023-05-05T16:57:36.234Z,100606.63
2023-05-05T17:00:38.746Z,100603.16
2023-05-05T17:03:41.218Z,100611.50
2023-05-05T17:06:43.905Z,100607.50
2023-05-05T17:09:46.092Z,100617.50
2023-05-05T17:12:48.649Z,100608.91
2023-05-05T17:15:51.302Z,100613.50
2023-05-05T17:18:54.180Z,100611.88
2023-05-05T17:21:56.812Z,100604.66
2023-05-05T17:24:59.325Z,100606.87
2023-05-05T17:28:01.684Z,100608.91
2023-05-05T17:31:04.298Z,100606.94
2023-05-05T17:34:06.552Z,100606.78
2023-05-05T17:37:09.713Z,100609.41
2023-05-05T17:40:12.290Z,100617.31
2023-05-05T17:43:14.858Z,100606.91
2023-05-05T17:46:17.201Z,100616.94
2023-05-05T17:49:21.427Z,100613.03
2023-05-05T17:52:24.861Z,100619.75
2023-05-05T17:55:27.916Z,100621.16
2023-05-05T17:58:30.224Z,100615.38
2023-05-05T18:01:32.703Z,100619.03
2023-05-05T18:04:38.591Z,100620.16
2023-05-05T18:07:40.773Z,100620.28
2023-05-05T18:10:43.408Z,100627.59
2023-05-05T18:13:45.611Z,100621.81
2023-05-05T18:16:50.776Z,100625.59
2023-05-05T18:19:53.047Z,100627.69
2023-05-05T18:22:55.527Z,100630.97
2023-05-05T18:25:57.696Z,100626.38
2023-05-05T18:29:00.185Z,100628.69
2023-05-05T18:32:02.604Z,100635.34
2023-05-05T18:35:05.836Z,100638.25
2023-05-05T18:38:07.980Z,100640.41
2023-05-05T18:41:11.099Z,100639.78
2023-05-05T18:44:13.299Z,100637.88
2023-05-05T18:47:16.235Z,100638.34
2023-05-05T18:50:19.028Z,100645.69
2023-05-05T18:53:21.747Z,100646.84
2023-05-05T18:56:23.893Z,100649.81
2023-05-05T18:59:26.389Z,100660.37
2023-05-05T19:02:28.655Z,100657.34
2023-05-05T19:05:31.173Z,100665.38
2023-05-05T19:08:33.373Z,100660.63
2023-05-05T19:11:35.967Z,100657.84
2023-05-05T19:14:38.113Z,100668.03
2023-05-05T19:17:40.596Z,100668.47
2023-05-05T19:20:43.558Z,100661.47
2023-05-05T19:23:46.138Z,100665.44
2023-05-05T19:26:48.367Z,100664.22
2023-05-05T19:29:52.516Z,100663.41
2023-05-05T19:32:55.274Z,100661.63
2023-05-05T19:35:57.732Z,100661.78
2023-05-05T19:39:01.885Z,100664.34
2023-05-05T19:42:04.632Z,100665.38
2023-05-05T19:45:07.450Z,100664.13
2023-05-05T19:48:10.052Z,100649.66
2023-05-05T19:51:12.801Z,100667.97
2023-05-05T19:54:16.046Z,100664.59
2023-05-05T19:57:18.396Z,100661.50
2023-05-05T20:00:21.042Z,100663.47
2023-05-05T20:03:23.614Z,100659.69
2023-05-05T20:06:26.919Z,100655.34
2023-05-05T20:09:29.467Z,100653.53
2023-05-05T20:12:31.706Z,100657.91
2023-05-05T20:15:34.678Z,100659.44
2023-05-05T20:18:36.931Z,100651.13
2023-05-05T20:21:40.129Z,100653.09
2023-05-05T20:24:42.350Z,100652.66
2023-05-05T20:27:45.782Z,100650.97
2023-05-05T20:30:48.190Z,100650.69
2023-05-05T20:33:50.716Z,100650.41
2023-05-05T20:36:54.207Z,100654.22
2023-05-05T20:39:58.134Z,100651.97
2023-05-05T20:43:00.310Z,100651.81
2023-05-05T20:46:02.888Z,100647.88
2023-05-05T20:49:05.028Z,100653.75
2023-05-05T20:52:07.543Z,100650.91
2023-05-05T20:55:09.922Z,100653.84
2023-05-05T20:58:12.739Z,100655.09
2023-05-05T21:01:14.943Z,100651.22
2023-05-05T21:04:17.460Z,100648.06
2023-05-05T21:07:19.597Z,100648.62
2023-05-05T21:10:22.163Z,100645.62
2023-05-05T21:13:24.455Z,100649.84
2023-05-05T21:16:27.026Z,100644.91
2023-05-05T21:19:29.251Z,100647.72
2023-05-05T21:22:31.744Z,100640.13
2023-05-05T21:25:33.963Z,100643.41
2023-05-05T21:28:37.524Z,100637.50
2023-05-05T21:31:40.701Z,100645.06
2023-05-05T21:34:43.214Z,100642.94
2023-05-05T21:37:45.436Z,100644.56
2023-05-05T21:40:48.009Z,100639.75
2023-05-05T21:43:50.210Z,100628.81
2023-05-05T21:46:53.146Z,100635.25
2023-05-05T21:49:55.383Z,100623.16
2023-05-05T21:52:57.868Z,100622.56
2023-05-05T21:56:00.174Z,100623.94
2023-05-05T21:59:04.162Z,100614.50
2023-05-05T22:02:06.469Z,100616.00
2023-05-05T22:05:09.275Z,100612.88
2023-05-05T22:08:11.511Z,100612.88
2023-05-05T22:11:14.251Z,100613.97
2023-05-05T22:14:16.498Z,100615.66
2023-05-05T22:17:19.044Z,100610.59
2023-05-05T22:20:21.723Z,100615.81
2023-05-05T22:23:24.262Z,100620.09
2023-05-05T22:26:26.472Z,100624.69
2023-05-05T22:29:29.042Z,100623.16
2023-05-05T22:32:31.346Z,100620.66
2023-05-05T22:35:34.087Z,100631.28
2023-05-05T22:38:36.286Z,100635.56
2023-05-05T22:41:38.769Z,100634.38
2023-05-05T22:44:40.939Z,100640.94
2023-05-05T22:47:44.116Z,100641.44
2023-05-05T22:50:46.514Z,100633.81
2023-05-05T22:53:49.152Z,100635.84
2023-05-05T22:56:51.345Z,100637.78
2023-05-05T22:59:53.793Z,100640.47
2023-05-05T23:02:56.074Z,100639.75
2023-05-05T23:05:58.695Z,100635.62
2023-05-05T23:09:01.045Z,100632.50
2023-05-05T23:12:03.672Z,100635.50
2023-05-05T23:15:06.661Z,100639.88
2023-05-05T23:18:09.422Z,100633.44
2023-05-05T23:21:11.933Z,100628.03
2023-05-05T23:24:14.450Z,100622.88
2023-05-05T23:27:16.647Z,100635.59
2023-05-05T23:30:19.230Z,100624.47
2023-05-05T23:33:21.400Z,100630.28
2023-05-05T23:36:23.861Z,100627.72
2023-05-05T23:39:26.072Z,100621.91
2023-05-05T23:42:28.547Z,100614.06
2023-05-05T23:45:30.873Z,100611.88
2023-05-05T23:48:33.318Z,100619.66
2023-05-05T23:51:35.740Z,100620.63
2023-05-05T23:54:38.249Z,100625.53
2023-05-05T23:57:40.444Z,100623.72
